createdAt,value
2022-10-27T00:00:56.497Z,18.20
2022-10-27T00:03:23.578Z,17.40
2022-10-27T00:05:50.580Z,16.50
2022-10-27T00:08:22.596Z,20.27
2022-10-27T00:11:01.369Z,15.77
2022-10-27T00:13:29.837Z,16.00
2022-10-27T00:16:03.163Z,17.43
2022-10-27T00:18:30.166Z,16.57
2022-10-27T00:21:02.633Z,16.53
2022-10-27T00:23:31.604Z,17.00
2022-10-27T00:26:00.232Z,17.47
2022-10-27T00:28:28.667Z,15.77
2022-10-27T00:31:08.702Z,16.73
2022-10-27T00:33:35.659Z,15.00
2022-10-27T00:36:10.257Z,16.07
2022-10-27T00:38:38.554Z,17.03
2022-10-27T00:41:24.987Z,15.90
2022-10-27T00:43:52.272Z,15.80
2022-10-27T00:46:46.701Z,16.63
2022-10-27T00:49:18.964Z,18.33
2022-10-27T00:51:52.817Z,15.00
2022-10-27T00:54:22.742Z,16.03
2022-10-27T00:56:52.306Z,14.93
2022-10-27T00:59:21.494Z,15.80
2022-10-27T01:01:50.855Z,16.20
2022-10-27T01:04:44.114Z,18.00
2022-10-27T01:07:15.492Z,14.90
2022-10-27T01:09:43.842Z,16.33
2022-10-27T01:12:11.088Z,15.13
2022-10-27T01:14:38.722Z,16.93
2022-10-27T01:17:39.718Z,14.33
2022-10-27T01:20:39.053Z,14.60
2022-10-27T01:23:42.782Z,15.07
2022-10-27T01:26:50.783Z,15.07
2022-10-27T01:30:09.166Z,15.50
2022-10-27T01:33:12.502Z,14.47
2022-10-27T01:36:02.346Z,14.23
2022-10-27T01:38:40.822Z,12.53
2022-10-27T01:41:26.883Z,14.43
2022-10-27T01:44:01.138Z,15.60
2022-10-27T01:46:29.037Z,17.27
2022-10-27T01:48:56.658Z,16.55
2022-10-27T01:53:52.587Z,18.23
2022-10-27T01:56:38.811Z,18.87
2022-10-27T01:59:45.733Z,17.70
2022-10-27T02:02:34.246Z,17.03
2022-10-27T02:06:04.221Z,16.47
2022-10-27T02:08:49.457Z,16.00
2022-10-27T02:11:16.512Z,17.00
2022-10-27T02:13:46.082Z,14.47
2022-10-27T02:16:19.636Z,16.00
2022-10-27T02:18:53.316Z,18.00
2022-10-27T02:21:23.840Z,14.43
2022-10-27T02:23:52.528Z,14.80
2022-10-27T02:26:34.153Z,14.73
2022-10-27T02:29:13.912Z,15.23
2022-10-27T02:31:49.037Z,16.50
2022-10-27T02:34:18.312Z,17.33
2022-10-27T02:36:46.332Z,18.03
2022-10-27T02:39:13.287Z,17.17
2022-10-27T02:41:40.203Z,16.53
2022-10-27T02:44:07.172Z,17.60
2022-10-27T02:46:34.123Z,18.60
2022-10-27T02:49:01.196Z,19.90
2022-10-27T02:51:28.177Z,20.57
2022-10-27T02:53:55.138Z,20.23
2022-10-27T02:56:22.146Z,19.43
2022-10-27T02:58:49.087Z,22.50
2022-10-27T03:01:16.175Z,18.43
2022-10-27T03:03:43.281Z,19.13
2022-10-27T03:06:10.517Z,18.90
2022-10-27T03:08:37.521Z,20.80
2022-10-27T03:11:04.552Z,19.73
2022-10-27T03:13:31.457Z,22.23
2022-10-27T03:15:58.421Z,20.70
2022-10-27T03:18:25.297Z,19.67
2022-10-27T03:20:52.407Z,21.00
2022-10-27T03:23:19.372Z,22.33
2022-10-27T03:25:47.754Z,22.80
2022-10-27T03:28:16.410Z,22.90
2022-10-27T03:30:43.418Z,21.57
2022-10-27T03:33:10.407Z,23.43
2022-10-27T03:35:37.381Z,23.47
2022-10-27T03:38:04.438Z,21.07
2022-10-27T03:40:31.466Z,19.20
2022-10-27T03:42:59.359Z,18.00
2022-10-27T03:45:28.249Z,18.70
2022-10-27T03:48:11.558Z,18.13
2022-10-27T03:50:39.591Z,17.00
2022-10-27T03:53:07.077Z,15.83
2022-10-27T03:55:35.851Z,16.67
2022-10-27T03:58:02.804Z,15.83
2022-10-27T04:00:31.706Z,15.87
2022-10-27T04:02:59.207Z,15.57
2022-10-27T04:05:26.244Z,15.40
2022-10-27T04:07:53.247Z,15.57
2022-10-27T04:10:20.266Z,17.90
2022-10-27T04:12:52.899Z,15.53
2022-10-27T04:15:21.596Z,18.10
2022-10-27T04:17:49.081Z,15.63
2022-10-27T04:20:16.092Z,15.17
2022-10-27T04:22:43.037Z,16.20
2022-10-27T04:25:10.126Z,14.70
2022-10-27T04:27:37.141Z,15.50
2022-10-27T04:30:04.913Z,17.13
2022-10-27T04:32:31.857Z,17.20
2022-10-27T04:34:58.846Z,15.30
2022-10-27T04:37:26.745Z,14.73
2022-10-27T04:39:53.724Z,14.50
2022-10-27T04:42:20.703Z,12.87
2022-10-27T04:44:47.657Z,13.13
2022-10-27T04:47:14.697Z,15.07
2022-10-27T04:49:41.686Z,17.00
2022-10-27T04:52:08.948Z,21.27
2022-10-27T04:54:35.882Z,19.33
2022-10-27T04:57:02.817Z,23.20
2022-10-27T04:59:29.777Z,24.27
2022-10-27T05:01:56.754Z,25.90
2022-10-27T05:04:23.828Z,25.00
2022-10-27T05:06:50.807Z,24.53
2022-10-27T05:09:17.762Z,22.07
2022-10-27T05:11:44.674Z,21.83
2022-10-27T05:14:11.721Z,19.33
2022-10-27T05:16:38.713Z,18.40
2022-10-27T05:19:05.690Z,16.67
2022-10-27T05:21:33.152Z,15.47
2022-10-27T05:24:00.307Z,14.87
2022-10-27T05:26:29.404Z,13.67
2022-10-27T05:28:57.887Z,13.60
2022-10-27T05:31:24.903Z,14.93
2022-10-27T05:33:51.949Z,16.80
2022-10-27T05:36:19.047Z,15.77
2022-10-27T05:38:47.372Z,15.63
2022-10-27T05:41:14.562Z,17.03
2022-10-27T05:43:44.382Z,17.00
2022-10-27T05:46:11.341Z,15.30
2022-10-27T05:48:38.336Z,16.50
2022-10-27T05:51:05.418Z,15.83
2022-10-27T05:53:32.571Z,15.00
2022-10-27T05:55:59.569Z,15.37
2022-10-27T05:58:26.729Z,15.13
2022-10-27T06:00:58.640Z,16.97
2022-10-27T06:03:26.223Z,14.97
2022-10-27T06:05:54.302Z,15.97
2022-10-27T06:08:21.934Z,15.63
2022-10-27T06:10:48.974Z,16.70
2022-10-27T06:13:15.999Z,16.33
2022-10-27T06:18:10.256Z,15.30
2022-10-27T06:20:37.525Z,16.20
2022-10-27T06:23:04.897Z,16.30
2022-10-27T06:25:31.873Z,17.10
2022-10-27T06:27:58.917Z,15.30
2022-10-27T06:30:26.014Z,16.20
2022-10-27T06:32:53.408Z,15.07
2022-10-27T06:35:20.824Z,14.70
2022-10-27T06:37:48.201Z,14.13
2022-10-27T06:40:18.856Z,14.80
2022-10-27T06:43:07.761Z,16.17
2022-10-27T06:45:35.565Z,15.10
2022-10-27T06:48:02.796Z,17.00
2022-10-27T06:50:30.801Z,17.50
2022-10-27T06:52:59.071Z,16.20
2022-10-27T06:55:26.364Z,16.33
2022-10-27T06:57:54.151Z,16.33
2022-10-27T07:00:21.761Z,15.30
2022-10-27T07:02:48.732Z,15.00
2022-10-27T07:05:15.959Z,17.57
2022-10-27T07:07:51.069Z,17.73
2022-10-27T07:10:20.576Z,17.00
2022-10-27T07:13:02.198Z,16.27
2022-10-27T07:15:33.322Z,16.07
2022-10-27T07:18:07.596Z,20.27
2022-10-27T07:20:36.326Z,18.27
2022-10-27T07:23:04.318Z,19.43
2022-10-27T07:25:33.130Z,19.47
2022-10-27T07:28:03.321Z,20.90
2022-10-27T07:30:35.127Z,20.83
2022-10-27T07:33:02.471Z,20.70
2022-10-27T07:35:29.697Z,20.30
2022-10-27T07:37:56.985Z,21.47
2022-10-27T07:40:28.729Z,21.57
2022-10-27T07:43:05.025Z,23.83
2022-10-27T07:45:41.134Z,21.77
2022-10-27T07:48:13.413Z,21.47
2022-10-27T07:50:40.605Z,22.40
2022-10-27T07:53:08.090Z,25.00
2022-10-27T07:55:37.053Z,27.30
2022-10-27T07:58:15.106Z,22.43
2022-10-27T08:00:45.463Z,18.87
2022-10-27T08:03:18.245Z,21.80
2022-10-27T08:05:45.715Z,20.30
2022-10-27T08:08:13.001Z,19.17
2022-10-27T08:10:41.620Z,20.17
2022-10-27T08:13:10.250Z,20.63
2022-10-27T08:15:39.615Z,22.10
2022-10-27T08:18:07.496Z,21.80
2022-10-27T08:20:40.416Z,22.30
2022-10-27T08:23:12.307Z,24.93
2022-10-27T08:25:39.471Z,24.57
2022-10-27T08:28:06.748Z,29.53
2022-10-27T08:30:37.198Z,35.20
2022-10-27T08:33:09.141Z,28.73
2022-10-27T08:35:36.408Z,30.63
2022-10-27T08:38:07.047Z,27.10
2022-10-27T08:40:54.174Z,27.80
2022-10-27T08:43:59.888Z,26.93
2022-10-27T08:46:31.771Z,26.73
2022-10-27T08:49:04.245Z,28.90
2022-10-27T08:51:34.792Z,29.67
2022-10-27T08:54:02.582Z,30.40
2022-10-27T08:56:40.112Z,29.90
2022-10-27T08:59:21.363Z,30.70
2022-10-27T09:02:19.908Z,32.17
2022-10-27T09:05:43.453Z,36.40
2022-10-27T09:08:22.231Z,29.97
2022-10-27T09:11:11.140Z,32.77
2022-10-27T09:14:04.173Z,30.57
2022-10-27T09:16:44.786Z,31.37
2022-10-27T09:19:36.335Z,30.30
2022-10-27T09:22:13.905Z,29.40
2022-10-27T09:24:40.882Z,30.57
2022-10-27T09:27:12.906Z,30.13
2022-10-27T09:29:41.770Z,28.77
2022-10-27T09:32:20.715Z,31.93
2022-10-27T09:35:17.781Z,29.40
2022-10-27T09:37:48.601Z,32.10
2022-10-27T09:40:23.911Z,33.70
2022-10-27T09:42:54.867Z,35.53
2022-10-27T09:45:27.742Z,31.63
2022-10-27T09:48:07.957Z,30.90
2022-10-27T09:50:46.007Z,28.77
2022-10-27T09:53:41.393Z,27.10
2022-10-27T09:56:21.165Z,26.23
2022-10-27T09:59:02.854Z,24.10
2022-10-27T10:01:57.604Z,25.60
2022-10-27T10:04:31.880Z,22.20
2022-10-27T10:07:06.442Z,22.20
2022-10-27T10:09:39.890Z,22.63
2022-10-27T10:12:26.040Z,20.90
2022-10-27T10:15:12.983Z,19.87
2022-10-27T10:18:01.319Z,18.50
2022-10-27T10:23:23.156Z,20.03
2022-10-27T10:25:52.502Z,19.73
2022-10-27T10:28:43.641Z,19.03
2022-10-27T10:31:16.274Z,18.37
2022-10-27T10:33:47.610Z,16.27
2022-10-27T10:36:40.770Z,16.70
2022-10-27T10:39:24.452Z,16.33
2022-10-27T10:42:15.752Z,15.00
2022-10-27T10:44:44.895Z,15.53
2022-10-27T10:47:28.850Z,14.80
2022-10-27T10:50:00.831Z,15.20
2022-10-27T10:52:38.876Z,14.77
2022-10-27T10:55:17.866Z,14.10
2022-10-27T10:57:48.302Z,15.00
2022-10-27T11:00:19.057Z,16.50
2022-10-27T11:03:01.693Z,16.10
2022-10-27T11:05:37.325Z,17.70
2022-10-27T11:08:06.393Z,16.57
2022-10-27T11:10:39.817Z,15.37
2022-10-27T11:13:47.756Z,14.87
2022-10-27T11:16:15.341Z,11.97
2022-10-27T11:18:50.181Z,12.90
2022-10-27T11:21:20.183Z,13.23
2022-10-27T11:24:01.796Z,13.20
2022-10-27T11:26:44.054Z,12.50
2022-10-27T11:29:36.098Z,11.57
2022-10-27T11:32:28.089Z,12.00
2022-10-27T11:38:04.676Z,12.57
2022-10-27T11:41:11.286Z,11.53
2022-10-27T11:43:45.607Z,10.70
2022-10-27T11:46:18.110Z,11.10
2022-10-27T11:49:05.694Z,10.53
2022-10-27T11:51:46.433Z,9.17
2022-10-27T11:57:39.137Z,8.47
2022-10-27T12:00:20.580Z,8.70
2022-10-27T12:03:12.429Z,10.30
2022-10-27T12:06:02.250Z,7.93
2022-10-27T12:08:55.846Z,8.30
2022-10-27T12:12:16.876Z,8.60
2022-10-27T12:15:20.937Z,7.40
2022-10-27T12:18:10.181Z,7.33
2022-10-27T12:20:48.271Z,6.83
2022-10-27T12:23:29.190Z,7.73
2022-10-27T12:25:58.655Z,6.90
2022-10-27T12:28:27.573Z,7.73
2022-10-27T12:31:00.834Z,7.60
2022-10-27T12:33:50.102Z,7.20
2022-10-27T12:36:37.752Z,6.30
2022-10-27T12:39:28.186Z,7.20
2022-10-27T12:42:18.126Z,7.57
2022-10-27T12:45:29.547Z,6.23
2022-10-27T12:48:59.976Z,6.80
2022-10-27T12:52:03.555Z,7.23
2022-10-27T12:55:21.275Z,6.57
2022-10-27T12:58:20.584Z,6.57
2022-10-27T13:01:06.533Z,6.17
2022-10-27T13:04:20.719Z,6.83
2022-10-27T13:07:26.415Z,7.03
2022-10-27T13:10:05.021Z,6.20
2022-10-27T13:12:53.444Z,6.07
2022-10-27T13:15:49.478Z,6.87
2022-10-27T13:18:39.064Z,4.83
2022-10-27T13:21:33.060Z,5.23
2022-10-27T13:24:08.983Z,5.10
2022-10-27T13:26:54.515Z,4.47
2022-10-27T13:29:40.203Z,4.63
2022-10-27T13:32:48.640Z,4.33
2022-10-27T13:35:15.458Z,4.30
2022-10-27T13:37:54.468Z,4.23
2022-10-27T13:40:21.474Z,4.23
2022-10-27T13:43:21.575Z,4.03
2022-10-27T13:45:52.696Z,4.67
2022-10-27T13:48:31.312Z,4.20
2022-10-27T13:50:58.851Z,3.80
2022-10-27T13:53:28.430Z,4.70
2022-10-27T13:56:14.756Z,4.13
2022-10-27T13:59:22.381Z,4.00
2022-10-27T14:02:03.370Z,4.43
2022-10-27T14:04:52.731Z,3.70
2022-10-27T14:07:19.842Z,3.73
2022-10-27T14:09:51.216Z,3.50
2022-10-27T14:12:29.146Z,3.80
2022-10-27T14:15:07.402Z,3.43
2022-10-27T14:17:35.386Z,4.00
2022-10-27T14:20:12.810Z,3.90
2022-10-27T14:22:45.651Z,4.50
2022-10-27T14:25:30.834Z,4.20
2022-10-27T14:28:17.189Z,3.63
2022-10-27T14:30:46.199Z,4.30
2022-10-27T14:33:26.542Z,4.60
2022-10-27T14:39:16.012Z,4.80
2022-10-27T14:41:48.544Z,4.20
2022-10-27T14:44:23.538Z,3.90
2022-10-27T14:46:52.615Z,4.53
2022-10-27T14:49:47.017Z,4.00
2022-10-27T14:52:32.190Z,3.70
2022-10-27T14:54:59.302Z,3.73
2022-10-27T14:57:37.594Z,4.33
2022-10-27T15:00:25.790Z,3.70
2022-10-27T15:02:54.789Z,3.80
2022-10-27T15:05:37.260Z,4.60
2022-10-27T15:08:13.476Z,4.10
2022-10-27T15:10:44.678Z,3.30
2022-10-27T15:13:18.119Z,3.30
2022-10-27T15:15:49.117Z,4.30
2022-10-27T15:18:54.590Z,3.50
2022-10-27T15:21:27.115Z,4.07
2022-10-27T15:24:02.256Z,3.43
2022-10-27T15:26:30.738Z,3.20
2022-10-27T15:28:58.159Z,4.00
2022-10-27T15:31:25.397Z,3.50
2022-10-27T15:34:08.146Z,4.20
2022-10-27T15:36:35.132Z,4.60
2022-10-27T15:39:10.985Z,4.77
2022-10-27T15:41:51.319Z,4.27
2022-10-27T15:44:26.251Z,4.10
2022-10-27T15:46:53.600Z,3.50
2022-10-27T15:49:29.526Z,4.60
2022-10-27T15:52:04.827Z,5.83
2022-10-27T15:54:43.349Z,4.93
2022-10-27T15:57:31.936Z,4.67
2022-10-27T16:00:13.863Z,5.43
2022-10-27T16:02:58.846Z,5.13
2022-10-27T16:05:31.764Z,7.00
2022-10-27T16:08:12.135Z,5.20
2022-10-27T16:10:41.533Z,5.10
2022-10-27T16:13:16.440Z,5.50
2022-10-27T16:15:46.877Z,4.90
2022-10-27T16:18:16.772Z,5.17
2022-10-27T16:20:45.372Z,6.97
2022-10-27T16:23:15.066Z,6.50
2022-10-27T16:25:47.522Z,5.90
2022-10-27T16:28:22.348Z,5.80
2022-10-27T16:30:49.480Z,5.80
2022-10-27T16:33:22.412Z,5.30
2022-10-27T16:35:49.431Z,6.00
2022-10-27T16:38:17.199Z,5.53
2022-10-27T16:40:48.031Z,5.53
2022-10-27T16:43:27.891Z,6.00
2022-10-27T16:45:54.986Z,7.00
2022-10-27T16:48:22.093Z,5.77
2022-10-27T16:50:49.067Z,6.00
2022-10-27T16:53:20.670Z,5.77
2022-10-27T16:56:16.999Z,6.27
2022-10-27T16:58:45.824Z,7.20
2022-10-27T17:01:20.281Z,7.17
2022-10-27T17:03:48.699Z,6.70
2022-10-27T17:06:18.162Z,6.03
2022-10-27T17:08:45.197Z,6.07
2022-10-27T17:11:15.857Z,6.20
2022-10-27T17:13:42.871Z,7.43
2022-10-27T17:16:16.823Z,7.20
2022-10-27T17:18:44.970Z,8.00
2022-10-27T17:21:14.575Z,6.23
2022-10-27T17:23:44.716Z,7.33
2022-10-27T17:26:13.838Z,7.00
2022-10-27T17:28:42.495Z,8.23
2022-10-27T17:31:13.135Z,8.20
2022-10-27T17:33:40.875Z,9.37
2022-10-27T17:38:39.442Z,8.07
2022-10-27T17:41:08.309Z,7.90
2022-10-27T17:43:37.376Z,8.57
2022-10-27T17:46:16.275Z,8.20
2022-10-27T17:48:50.309Z,8.40
2022-10-27T17:51:25.675Z,8.73
2022-10-27T17:53:53.899Z,9.40
2022-10-27T17:56:32.492Z,9.50
2022-10-27T17:58:59.538Z,10.13
2022-10-27T18:01:30.205Z,9.90
2022-10-27T18:04:05.324Z,10.83
2022-10-27T18:06:33.244Z,9.10
2022-10-27T18:09:02.302Z,10.63
2022-10-27T18:11:32.905Z,13.03
2022-10-27T18:14:03.984Z,13.47
2022-10-27T18:16:34.615Z,12.33
2022-10-27T18:19:05.981Z,13.40
2022-10-27T18:21:37.514Z,13.67
2022-10-27T18:24:06.406Z,14.13
2022-10-27T18:26:36.510Z,13.67
2022-10-27T18:29:09.666Z,14.50
2022-10-27T18:31:39.216Z,14.40
2022-10-27T18:34:15.008Z,15.20
2022-10-27T18:36:44.200Z,14.17
2022-10-27T18:39:19.757Z,15.90
2022-10-27T18:41:50.969Z,16.07
2022-10-27T18:44:17.968Z,15.30
2022-10-27T18:46:44.902Z,15.80
2022-10-27T18:49:16.067Z,16.00
2022-10-27T18:51:47.835Z,14.67
2022-10-27T18:54:15.060Z,14.90
2022-10-27T18:56:42.208Z,16.10
2022-10-27T18:59:13.481Z,16.67
2022-10-27T19:01:42.770Z,15.00
2022-10-27T19:04:10.267Z,14.07
2022-10-27T19:06:38.563Z,14.37
2022-10-27T19:09:06.850Z,13.40
2022-10-27T19:11:36.022Z,12.90
2022-10-27T19:14:04.049Z,14.43
2022-10-27T19:16:31.847Z,13.50
2022-10-27T19:19:00.726Z,16.00
2022-10-27T19:21:29.095Z,15.10
2022-10-27T19:23:59.762Z,11.53
2022-10-27T19:26:30.396Z,13.23
2022-10-27T19:28:58.508Z,12.93
2022-10-27T19:31:30.072Z,12.43
2022-10-27T19:33:58.482Z,13.20
2022-10-27T19:36:29.720Z,12.27
2022-10-27T19:38:59.713Z,11.53
2022-10-27T19:41:31.144Z,13.67
2022-10-27T19:43:59.126Z,13.20
2022-10-27T19:46:28.812Z,12.47
2022-10-27T19:49:03.933Z,11.80
2022-10-27T19:51:35.972Z,12.10
2022-10-27T19:54:03.070Z,13.20
2022-10-27T19:56:32.582Z,13.63
2022-10-27T19:59:03.473Z,14.40
2022-10-27T20:01:38.109Z,12.50
2022-10-27T20:04:11.347Z,12.13
2022-10-27T20:06:40.556Z,13.27
2022-10-27T20:09:08.042Z,12.53
2022-10-27T20:11:36.001Z,12.10
2022-10-27T20:14:03.410Z,11.70
2022-10-27T20:16:37.787Z,11.40
2022-10-27T20:19:12.015Z,13.43
2022-10-27T20:21:39.740Z,11.53
2022-10-27T20:24:14.645Z,12.57
2022-10-27T20:26:48.460Z,12.20
2022-10-27T20:29:20.362Z,12.47
2022-10-27T20:31:50.107Z,12.10
2022-10-27T20:34:17.617Z,12.20
2022-10-27T20:36:45.188Z,13.17
2022-10-27T20:39:15.231Z,13.20
2022-10-27T20:41:42.895Z,14.20
2022-10-27T20:44:09.983Z,13.90
2022-10-27T20:46:36.967Z,13.03
2022-10-27T20:49:04.286Z,13.77
2022-10-27T20:51:33.205Z,13.10
2022-10-27T20:54:01.897Z,12.87
2022-10-27T20:56:35.685Z,14.70
2022-10-27T20:59:04.175Z,12.60
2022-10-27T21:01:35.540Z,11.20
2022-10-27T21:04:12.031Z,14.33
2022-10-27T21:06:42.824Z,11.87
2022-10-27T21:09:14.250Z,12.10
2022-10-27T21:11:42.955Z,15.50
2022-10-27T21:14:11.927Z,14.43
2022-10-27T21:16:38.936Z,14.80
2022-10-27T21:19:09.537Z,15.20
2022-10-27T21:21:38.145Z,15.50
2022-10-27T21:24:06.282Z,14.80
2022-10-27T21:26:34.202Z,13.80
2022-10-27T21:29:02.180Z,15.03
2022-10-27T21:31:31.461Z,15.53
2022-10-27T21:34:05.691Z,15.30
2022-10-27T21:36:33.057Z,16.30
2022-10-27T21:39:00.148Z,15.90
2022-10-27T21:41:27.201Z,15.17
2022-10-27T21:43:56.259Z,14.40
2022-10-27T21:46:26.749Z,14.57
2022-10-27T21:49:01.988Z,14.67
2022-10-27T21:51:30.326Z,15.43
2022-10-27T21:54:00.887Z,16.33
2022-10-27T21:56:34.719Z,17.60
2022-10-27T21:59:01.701Z,18.37
2022-10-27T22:01:29.858Z,17.33
2022-10-27T22:03:57.858Z,17.80
2022-10-27T22:06:31.935Z,19.40
2022-10-27T22:08:59.747Z,19.20
2022-10-27T22:11:32.117Z,17.60
2022-10-27T22:13:59.381Z,19.00
2022-10-27T22:16:29.121Z,17.07
2022-10-27T22:19:00.027Z,17.43
2022-10-27T22:21:30.583Z,17.50
2022-10-27T22:23:58.156Z,16.60
2022-10-27T22:26:26.293Z,15.53
2022-10-27T22:28:54.029Z,19.47
2022-10-27T22:31:33.549Z,16.10
2022-10-27T22:34:02.812Z,17.80
2022-10-27T22:36:30.583Z,15.80
2022-10-27T22:39:01.453Z,17.33
2022-10-27T22:41:30.210Z,16.90
2022-10-27T22:43:58.083Z,18.10
2022-10-27T22:46:28.363Z,17.43
2022-10-27T22:48:55.863Z,16.30
2022-10-27T22:51:26.429Z,17.27
2022-10-27T22:53:56.425Z,15.87
2022-10-27T22:56:31.196Z,16.20
2022-10-27T22:59:02.117Z,16.10
2022-10-27T23:01:35.858Z,16.70
2022-10-27T23:04:06.042Z,17.00
2022-10-27T23:06:37.362Z,15.57
2022-10-27T23:09:12.810Z,15.37
2022-10-27T23:11:40.106Z,15.10
2022-10-27T23:14:10.325Z,15.97
2022-10-27T23:16:37.361Z,16.53
2022-10-27T23:19:05.554Z,16.00
2022-10-27T23:21:34.402Z,15.20
2022-10-27T23:24:03.003Z,14.07
2022-10-27T23:26:38.976Z,15.57
2022-10-27T23:29:09.355Z,14.37
2022-10-27T23:31:36.501Z,15.60
2022-10-27T23:34:06.233Z,15.40
2022-10-27T23:36:35.561Z,14.63
2022-10-27T23:39:03.628Z,12.90
2022-10-27T23:41:31.309Z,13.10
2022-10-27T23:44:00.053Z,12.57
2022-10-27T23:46:29.151Z,11.73
2022-10-27T23:48:57.551Z,13.20
2022-10-27T23:51:25.374Z,11.83
2022-10-27T23:53:53.531Z,11.10
2022-10-27T23:56:20.557Z,12.23
2022-10-27T23:58:48.211Z,11.60
